Time;durP1;ratioP1;P1;durP2;ratioP2;P2;SDS_P1;SDS_P2;PMS_P1;PMS_P2;Temp;Humidity;BMP_temperature;BMP_pressure;BME280_temperature;BME280_humidity;BME280_pressure;Samples;Min_cycle;Max_cycle;Signal;HPM_P1;HPM_P2
2021/06/28 00:01:10;;;;;;;28.00;22.92;;;18.50;99.90;;;;;;5051081;28;20021;-59
2021/06/28 00:03:36;;;;;;;26.40;21.95;;;18.50;99.90;;;;;;5051028;28;20056;-59
2021/06/28 00:06:02;;;;;;;27.70;23.17;;;18.40;99.90;;;;;;5050843;28;20468;-59
2021/06/28 00:08:28;;;;;;;32.15;25.42;;;18.40;99.90;;;;;;5050957;28;20116;-60
2021/06/28 00:10:54;;;;;;;26.23;22.30;;;18.50;99.90;;;;;;5050937;28;20500;-59
2021/06/28 00:13:20;;;;;;;32.25;24.55;;;18.40;99.90;;;;;;5050861;28;20033;-59
2021/06/28 00:15:46;;;;;;;32.30;24.27;;;18.60;99.90;;;;;;5032846;28;20084;-59
2021/06/28 00:18:13;;;;;;;27.55;22.27;;;18.50;99.90;;;;;;5032744;28;20170;-59
2021/06/28 00:20:41;;;;;;;27.17;21.50;;;18.30;99.90;;;;;;5032822;28;20499;-59
2021/06/28 00:23:07;;;;;;;27.05;21.92;;;18.20;99.90;;;;;;5032708;28;20029;-59
2021/06/28 00:25:33;;;;;;;26.73;21.77;;;18.20;99.90;;;;;;5050570;28;20033;-59
2021/06/28 00:27:59;;;;;;;27.17;21.92;;;18.20;99.90;;;;;;5050707;28;20131;-59
2021/06/28 00:30:26;;;;;;;24.25;21.73;;;18.30;99.90;;;;;;5050471;28;20048;-60
2021/06/28 00:32:52;;;;;;;27.10;22.40;;;18.40;99.90;;;;;;5050426;28;20482;-60
2021/06/28 00:35:18;;;;;;;29.35;23.08;;;18.50;99.90;;;;;;5050721;28;20017;-60
2021/06/28 00:37:45;;;;;;;28.38;23.35;;;18.40;99.90;;;;;;5032592;28;20067;-60
2021/06/28 00:40:12;;;;;;;24.52;21.80;;;18.30;99.90;;;;;;5050319;28;20038;-60
2021/06/28 00:42:38;;;;;;;25.30;20.10;;;18.20;99.90;;;;;;5050289;28;20029;-60
2021/06/28 00:45:25;;;;;;;25.92;19.63;;;18.20;99.90;;;;;;5050693;28;20079;-60
2021/06/28 00:47:57;;;;;;;25.38;21.90;;;18.20;99.90;;;;;;5032473;28;20025;-60
2021/06/28 00:50:24;;;;;;;29.25;21.90;;;18.20;99.90;;;;;;5050601;28;20478;-60
2021/06/28 00:52:54;;;;;;;28.60;22.67;;;18.10;99.90;;;;;;5050351;28;20029;-60
2021/06/28 00:55:19;;;;;;;22.00;19.63;;;18.10;99.90;;;;;;5050470;28;20124;-60
2021/06/28 00:57:45;;;;;;;25.98;20.38;;;18.00;99.90;;;;;;5032412;28;20104;-60
2021/06/28 01:00:12;;;;;;;20.13;18.00;;;17.80;99.90;;;;;;5050314;28;20025;-60
2021/06/28 01:02:38;;;;;;;24.85;19.88;;;17.70;99.90;;;;;;5050242;28;20513;-59
2021/06/28 01:05:14;;;;;;;25.10;18.75;;;17.60;99.90;;;;;;5032494;28;20035;-60
2021/06/28 01:07:40;;;;;;;29.60;21.83;;;17.50;99.90;;;;;;5050259;28;20021;-59
2021/06/28 01:10:07;;;;;;;31.63;26.55;;;17.60;99.90;;;;;;5050381;28;20037;-59
2021/06/28 01:12:33;;;;;;;34.05;25.80;;;17.60;99.90;;;;;;5050126;28;20090;-59
2021/06/28 01:15:00;;;;;;;32.35;27.20;;;17.60;99.90;;;;;;5050374;28;20026;-59
2021/06/28 01:17:26;;;;;;;41.75;34.08;;;17.70;99.90;;;;;;5050171;28;20482;-59
2021/06/28 01:20:05;;;;;;;40.85;32.60;;;17.60;99.90;;;;;;5050108;28;20056;-59
2021/06/28 01:22:33;;;;;;;44.90;33.83;;;17.80;99.90;;;;;;5050240;28;20053;-59
2021/06/28 01:25:00;;;;;;;41.92;33.42;;;17.70;99.90;;;;;;5050227;28;20025;-59
2021/06/28 01:27:27;;;;;;;48.15;37.13;;;17.70;99.90;;;;;;5050118;28;20032;-59
2021/06/28 01:29:53;;;;;;;50.55;37.78;;;17.80;99.90;;;;;;5050175;28;20381;-60
2021/06/28 01:32:20;;;;;;;43.92;34.03;;;17.80;99.90;;;;;;5050081;28;20025;-60
2021/06/28 01:34:46;;;;;;;45.22;35.08;;;17.70;99.90;;;;;;5050216;28;20071;-59
2021/06/28 01:37:24;;;;;;;46.85;35.35;;;17.70;99.90;;;;;;5052686;28;20024;-59
2021/06/28 01:39:54;;;;;;;44.45;35.53;;;17.70;99.90;;;;;;5035526;28;20094;-60
2021/06/28 01:42:20;;;;;;;43.95;35.05;;;17.70;99.90;;;;;;5053402;28;20025;-59
2021/06/28 01:44:46;;;;;;;41.65;33.65;;;17.70;99.90;;;;;;5053388;28;20562;-59
2021/06/28 01:47:12;;;;;;;38.42;31.42;;;17.60;99.90;;;;;;5053311;28;20099;-59
2021/06/28 01:49:38;;;;;;;38.33;31.63;;;17.60;99.90;;;;;;5053269;28;20037;-59
2021/06/28 01:52:05;;;;;;;36.05;29.17;;;17.60;99.90;;;;;;5035377;28;20032;-59
2021/06/28 01:54:31;;;;;;;33.63;29.08;;;17.60;99.90;;;;;;5053336;28;20051;-59
2021/06/28 01:56:58;;;;;;;33.72;28.40;;;17.60;99.90;;;;;;5053221;28;20033;-59
2021/06/28 01:59:29;;;;;;;33.95;26.17;;;17.60;99.90;;;;;;5053229;28;20025;-59
2021/06/28 02:02:00;;;;;;;33.92;27.88;;;17.60;99.90;;;;;;5052865;28;20029;-59
2021/06/28 02:04:27;;;;;;;31.75;25.60;;;17.60;99.90;;;;;;5053066;28;20032;-59
2021/06/28 02:06:54;;;;;;;34.17;25.80;;;17.50;99.90;;;;;;5052890;28;20024;-58
2021/06/28 02:09:20;;;;;;;31.35;25.70;;;17.50;99.90;;;;;;5052969;28;20462;-58
2021/06/28 02:11:47;;;;;;;31.20;26.17;;;17.50;99.90;;;;;;5052979;28;20083;-58
2021/06/28 02:14:13;;;;;;;31.10;25.85;;;17.50;99.90;;;;;;5052764;28;20120;-59
2021/06/28 02:16:45;;;;;;;32.50;27.05;;;17.50;99.90;;;;;;5052839;28;20113;-59
2021/06/28 02:19:11;;;;;;;37.00;28.35;;;17.50;99.90;;;;;;5052757;28;20017;-59
2021/06/28 02:21:39;;;;;;;37.42;29.80;;;17.60;99.90;;;;;;5052631;28;20033;-59
2021/06/28 02:24:05;;;;;;;35.95;28.20;;;17.80;99.90;;;;;;5052858;28;20033;-59
2021/06/28 02:26:31;;;;;;;39.33;29.42;;;17.80;99.90;;;;;;5052736;28;20025;-59
2021/06/28 02:28:57;;;;;;;33.20;27.35;;;17.90;99.90;;;;;;5034616;28;20025;-59
2021/06/28 02:31:23;;;;;;;32.35;26.33;;;17.90;99.90;;;;;;5034602;28;20416;-59
2021/06/28 02:33:51;;;;;;;35.42;27.80;;;17.90;99.90;;;;;;5052474;28;20525;-58
2021/06/28 02:36:17;;;;;;;35.50;27.60;;;17.90;99.90;;;;;;5052499;28;20025;-59
2021/06/28 02:38:43;;;;;;;38.80;28.98;;;18.00;99.90;;;;;;5034410;28;20071;-59
2021/06/28 02:41:10;;;;;;;32.63;28.10;;;18.10;99.90;;;;;;5052452;28;20048;-59
2021/06/28 02:43:36;;;;;;;39.40;29.00;;;18.20;99.90;;;;;;5052349;28;20025;-59
2021/06/28 02:46:02;;;;;;;38.60;29.67;;;18.20;99.90;;;;;;5052176;28;20029;-59
2021/06/28 02:48:27;;;;;;;34.58;28.27;;;18.10;99.90;;;;;;5033140;28;20105;-59
2021/06/28 02:50:53;;;;;;;31.25;26.17;;;18.00;99.90;;;;;;5052242;28;20426;-59
2021/06/28 02:53:20;;;;;;;30.65;25.40;;;17.80;99.90;;;;;;5052180;28;20029;-59
2021/06/28 02:55:47;;;;;;;28.20;24.98;;;17.80;99.90;;;;;;5051951;28;20028;-59
2021/06/28 02:58:14;;;;;;;31.27;25.25;;;17.70;99.90;;;;;;5051970;28;20060;-59
2021/06/28 03:00:40;;;;;;;28.55;24.83;;;17.70;99.90;;;;;;5051990;28;20029;-59
2021/06/28 03:03:06;;;;;;;29.77;24.63;;;17.70;99.90;;;;;;5052218;28;20486;-59
2021/06/28 03:05:31;;;;;;;29.52;25.88;;;17.70;99.90;;;;;;5051986;28;20032;-59
2021/06/28 03:07:57;;;;;;;34.20;26.63;;;17.90;99.90;;;;;;5052165;28;20039;-59
2021/06/28 03:10:24;;;;;;;37.83;26.90;;;17.90;99.90;;;;;;5051907;28;20028;-59
2021/06/28 03:12:50;;;;;;;39.05;29.13;;;17.80;99.90;;;;;;5051559;28;20025;-59
2021/06/28 03:15:18;;;;;;;42.17;31.95;;;18.00;99.90;;;;;;5034071;28;20021;-60
2021/06/28 03:17:44;;;;;;;41.15;33.13;;;18.20;99.90;;;;;;5051601;28;20017;-60
2021/06/28 03:20:13;;;;;;;54.45;36.22;;;18.20;99.90;;;;;;5051692;28;20021;-60
2021/06/28 03:22:40;;;;;;;48.53;35.28;;;18.30;99.90;;;;;;5051411;28;20060;-60
2021/06/28 03:25:11;;;;;;;38.28;29.70;;;18.20;99.90;;;;;;5051621;28;20031;-60
2021/06/28 03:27:37;;;;;;;35.45;27.20;;;17.90;99.90;;;;;;5051492;28;20493;-60
2021/06/28 03:30:05;;;;;;;36.70;28.23;;;17.70;99.90;;;;;;5051745;28;20036;-60
2021/06/28 03:32:31;;;;;;;29.92;25.35;;;17.70;99.90;;;;;;5051394;28;20063;-59
2021/06/28 03:34:57;;;;;;;29.98;25.52;;;17.80;99.90;;;;;;5051392;28;20033;-59
2021/06/28 03:37:22;;;;;;;33.28;24.65;;;17.80;99.90;;;;;;5051502;28;20025;-59
2021/06/28 03:39:48;;;;;;;32.17;25.95;;;17.80;99.90;;;;;;5051275;28;20037;-59
2021/06/28 03:42:14;;;;;;;27.55;24.55;;;17.70;99.90;;;;;;5051161;28;20593;-59
2021/06/28 03:44:40;;;;;;;34.42;23.88;;;17.60;99.90;;;;;;5051254;28;20096;-60
2021/06/28 03:47:06;;;;;;;28.83;22.42;;;17.50;99.90;;;;;;5051139;28;20374;-60
2021/06/28 03:49:32;;;;;;;27.42;22.98;;;17.40;99.90;;;;;;5051079;28;20358;-60
2021/06/28 03:51:57;;;;;;;34.22;25.13;;;17.30;99.90;;;;;;5051001;28;20079;-60
2021/06/28 03:54:23;;;;;;;30.38;23.40;;;17.30;99.90;;;;;;5051078;28;20033;-60
2021/06/28 03:56:49;;;;;;;31.48;24.27;;;17.20;99.90;;;;;;5050988;28;20104;-59
2021/06/28 03:59:15;;;;;;;28.63;24.52;;;17.20;99.90;;;;;;5050596;28;20032;-59
2021/06/28 04:01:40;;;;;;;27.77;23.08;;;17.20;99.90;;;;;;5050850;28;20036;-59
2021/06/28 04:04:06;;;;;;;28.33;21.77;;;17.30;99.90;;;;;;5050895;28;20029;-60
2021/06/28 04:06:32;;;;;;;28.55;22.80;;;17.50;99.90;;;;;;5032931;28;20102;-59
2021/06/28 04:08:58;;;;;;;30.02;25.15;;;17.60;99.90;;;;;;5050991;28;20021;-59
2021/06/28 04:11:23;;;;;;;30.70;24.35;;;17.80;99.90;;;;;;5050809;28;20262;-59
2021/06/28 04:13:49;;;;;;;28.10;24.92;;;17.90;99.90;;;;;;5050664;28;20017;-59
2021/06/28 04:16:15;;;;;;;26.20;23.40;;;17.90;99.90;;;;;;5050673;28;20497;-59
2021/06/28 04:18:41;;;;;;;26.98;24.08;;;17.90;99.90;;;;;;5050696;28;20516;-60
2021/06/28 04:21:06;;;;;;;27.60;24.40;;;18.10;99.90;;;;;;5050767;28;20473;-60
2021/06/28 04:23:32;;;;;;;27.58;23.15;;;18.20;99.90;;;;;;5050930;28;20033;-59
2021/06/28 04:25:58;;;;;;;25.83;22.33;;;18.20;99.90;;;;;;5032839;28;20051;-59
2021/06/28 04:28:24;;;;;;;24.30;21.63;;;18.20;99.90;;;;;;5050635;28;20485;-59
2021/06/28 04:30:49;;;;;;;25.60;22.85;;;18.10;99.90;;;;;;5050520;28;20426;-59
2021/06/28 04:33:15;;;;;;;23.08;20.70;;;18.10;99.90;;;;;;5032763;28;20025;-61
2021/06/28 04:35:41;;;;;;;22.70;19.98;;;18.00;99.90;;;;;;5032729;28;20429;-59
2021/06/28 04:38:06;;;;;;;20.67;18.40;;;17.90;99.90;;;;;;5050376;28;20029;-59
2021/06/28 04:40:33;;;;;;;22.02;19.52;;;17.80;99.90;;;;;;5050340;28;20049;-59
2021/06/28 04:42:59;;;;;;;24.02;21.25;;;17.80;99.90;;;;;;5050389;28;20029;-59
2021/06/28 04:45:26;;;;;;;25.92;22.40;;;17.90;99.90;;;;;;5050629;28;20029;-59
2021/06/28 04:47:52;;;;;;;23.20;20.70;;;18.10;99.90;;;;;;5050380;28;20028;-59
2021/06/28 04:50:21;;;;;;;23.40;20.90;;;18.10;99.90;;;;;;5050269;28;20104;-59
2021/06/28 04:52:47;;;;;;;24.88;19.33;;;18.20;99.90;;;;;;5050218;28;20028;-59
2021/06/28 04:55:14;;;;;;;23.55;19.52;;;18.30;99.90;;;;;;5050258;28;20036;-59
2021/06/28 04:57:41;;;;;;;21.33;19.00;;;18.30;99.90;;;;;;5032835;28;20029;-59
2021/06/28 05:00:09;;;;;;;31.13;21.42;;;18.30;99.90;;;;;;5032317;28;20374;-59
2021/06/28 05:02:36;;;;;;;21.70;19.23;;;18.50;99.90;;;;;;5050249;28;20045;-59
2021/06/28 05:05:02;;;;;;;22.25;19.80;;;18.50;99.90;;;;;;5032487;28;20036;-59
2021/06/28 05:07:28;;;;;;;25.02;19.48;;;18.40;99.90;;;;;;5050450;28;20033;-59
2021/06/28 05:09:53;;;;;;;22.60;19.85;;;18.30;99.90;;;;;;5050201;28;20500;-59
2021/06/28 05:12:19;;;;;;;22.40;19.50;;;18.40;99.90;;;;;;5053099;28;20025;-59
2021/06/28 05:14:45;;;;;;;22.75;18.42;;;18.40;99.90;;;;;;5054146;28;20548;-60
2021/06/28 05:17:11;;;;;;;23.08;17.95;;;18.30;99.90;;;;;;5036019;28;20021;-59
2021/06/28 05:19:37;;;;;;;21.13;17.70;;;18.20;99.90;;;;;;5053847;28;20017;-59
2021/06/28 05:22:03;;;;;;;20.35;18.25;;;18.20;99.90;;;;;;5053969;28;20035;-59
2021/06/28 05:24:29;;;;;;;20.27;18.08;;;18.40;99.90;;;;;;5054052;28;20025;-60
2021/06/28 05:26:55;;;;;;;24.13;17.48;;;18.50;99.90;;;;;;5054226;28;20032;-60
2021/06/28 05:29:21;;;;;;;18.25;16.20;;;18.60;99.90;;;;;;5053719;28;20337;-60
2021/06/28 05:31:46;;;;;;;17.95;15.80;;;18.60;99.90;;;;;;5035714;28;20032;-59
2021/06/28 05:34:12;;;;;;;19.00;15.98;;;18.80;99.90;;;;;;5053636;28;20025;-59
2021/06/28 05:36:38;;;;;;;18.90;15.95;;;18.90;99.90;;;;;;5053620;28;20033;-59
2021/06/28 05:39:05;;;;;;;19.45;16.13;;;19.00;99.90;;;;;;5053403;28;20045;-59
2021/06/28 05:41:30;;;;;;;17.42;15.43;;;19.10;99.90;;;;;;5053262;28;20029;-59
2021/06/28 05:43:56;;;;;;;16.73;15.02;;;19.20;99.90;;;;;;5053704;28;20040;-60
2021/06/28 05:46:22;;;;;;;16.52;14.85;;;19.50;99.90;;;;;;5053921;28;20378;-60
2021/06/28 05:48:48;;;;;;;16.75;14.55;;;19.60;99.90;;;;;;5053612;28;20029;-60
2021/06/28 05:51:17;;;;;;;16.88;13.70;;;19.50;99.90;;;;;;5053625;28;20035;-59
2021/06/28 05:53:43;;;;;;;15.23;13.63;;;19.10;99.90;;;;;;5052788;28;20029;-60
2021/06/28 05:56:09;;;;;;;14.60;12.88;;;18.90;99.90;;;;;;5052786;28;20025;-59
2021/06/28 05:58:35;;;;;;;15.80;14.05;;;18.90;99.90;;;;;;5053010;28;20112;-59
2021/06/28 06:01:01;;;;;;;15.15;13.45;;;18.90;99.90;;;;;;5052132;28;20100;-59
2021/06/28 06:03:27;;;;;;;17.33;14.48;;;19.00;99.90;;;;;;5051851;28;20032;-59
2021/06/28 06:05:53;;;;;;;17.00;13.68;;;19.10;99.90;;;;;;5052324;28;20238;-59
2021/06/28 06:08:25;;;;;;;14.48;13.05;;;19.20;99.90;;;;;;5062242;28;20048;-59
2021/06/28 06:10:53;;;;;;;14.65;13.10;;;19.10;99.90;;;;;;5059623;28;20507;-59
2021/06/28 06:13:19;;;;;;;14.35;12.88;;;19.10;99.90;;;;;;5062041;28;20037;-59
2021/06/28 06:15:45;;;;;;;15.13;13.63;;;19.20;99.90;;;;;;5057403;28;20017;-60
2021/06/28 06:18:11;;;;;;;19.42;17.35;;;19.40;99.90;;;;;;5057351;28;20047;-59
2021/06/28 06:20:36;;;;;;;19.83;17.67;;;19.50;99.90;;;;;;5049239;28;20024;-59
2021/06/28 06:23:02;;;;;;;18.10;16.20;;;19.70;99.90;;;;;;5064647;28;20035;-59
2021/06/28 06:25:28;;;;;;;17.73;15.85;;;19.80;99.90;;;;;;5059335;28;20020;-60
2021/06/28 06:27:53;;;;;;;22.48;15.25;;;19.80;99.90;;;;;;5059037;28;20129;-59
2021/06/28 06:30:19;;;;;;;15.93;13.43;;;20.10;99.90;;;;;;5053061;28;20211;-59
2021/06/28 06:32:46;;;;;;;19.48;13.50;;;20.60;99.90;;;;;;5046462;28;20110;-59
2021/06/28 06:35:13;;;;;;;17.58;12.73;;;21.10;99.90;;;;;;5054931;28;20040;-59
2021/06/28 06:37:39;;;;;;;16.30;11.73;;;21.20;99.90;;;;;;5041186;28;20206;-59
2021/06/28 06:40:06;;;;;;;11.07;9.90;;;21.50;99.90;;;;;;5062671;28;20521;-59
2021/06/28 06:42:39;;;;;;;11.52;9.55;;;21.80;99.90;;;;;;5059951;28;20036;-60
2021/06/28 06:45:06;;;;;;;14.52;8.80;;;22.90;99.90;;;;;;5036111;28;20052;-59
2021/06/28 06:47:31;;;;;;;10.90;8.23;;;23.70;99.90;;;;;;5040552;28;20377;-59
2021/06/28 06:49:57;;;;;;;10.25;8.90;;;24.40;99.90;;;;;;5062004;28;20037;-59
2021/06/28 06:52:23;;;;;;;11.38;8.32;;;24.70;99.90;;;;;;5062509;28;20497;-59
2021/06/28 06:54:48;;;;;;;8.73;7.90;;;25.20;99.90;;;;;;5059137;28;20044;-59
2021/06/28 06:57:14;;;;;;;8.90;8.00;;;25.30;99.90;;;;;;5061518;28;20017;-59
2021/06/28 06:59:40;;;;;;;9.15;8.00;;;24.20;99.90;;;;;;5059878;28;20540;-59
2021/06/28 07:02:05;;;;;;;8.50;7.57;;;23.50;99.90;;;;;;5061409;28;20035;-59
2021/06/28 07:04:32;;;;;;;13.35;8.05;;;22.80;99.90;;;;;;5065363;28;20082;-60
2021/06/28 07:06:59;;;;;;;10.02;8.95;;;22.60;99.90;;;;;;5059546;28;20029;-59
2021/06/28 07:09:26;;;;;;;9.90;8.90;;;22.80;99.90;;;;;;5054279;28;20118;-59
2021/06/28 07:11:51;;;;;;;9.63;8.57;;;22.60;99.90;;;;;;5058763;28;20048;-59
2021/06/28 07:14:17;;;;;;;10.25;8.70;;;22.20;99.90;;;;;;5064183;28;20060;-59
2021/06/28 07:16:43;;;;;;;9.82;8.63;;;22.00;99.90;;;;;;5057060;28;20504;-59
2021/06/28 07:19:10;;;;;;;10.90;9.75;;;21.80;99.90;;;;;;5064737;28;20028;-60
2021/06/28 07:21:36;;;;;;;9.70;8.80;;;21.50;99.90;;;;;;5064538;28;20107;-59
2021/06/28 07:24:04;;;;;;;12.25;9.25;;;21.30;99.90;;;;;;5059299;28;20324;-59
2021/06/28 07:26:29;;;;;;;11.07;8.90;;;21.20;99.90;;;;;;5064613;28;20128;-59
2021/06/28 07:28:55;;;;;;;11.90;9.40;;;21.20;99.90;;;;;;5064948;28;20163;-59
2021/06/28 07:31:22;;;;;;;11.40;9.32;;;21.20;99.90;;;;;;5062821;28;20048;-59
2021/06/28 07:33:48;;;;;;;9.85;8.85;;;21.30;99.90;;;;;;5063601;28;20544;-58
2021/06/28 07:36:14;;;;;;;10.18;8.55;;;21.40;99.90;;;;;;5061226;28;20066;-58
2021/06/28 07:38:40;;;;;;;11.38;9.00;;;21.30;99.90;;;;;;5067344;28;20420;-58
2021/06/28 07:41:07;;;;;;;10.65;9.65;;;21.30;99.90;;;;;;5065433;28;20020;-59
2021/06/28 07:43:34;;;;;;;12.38;9.27;;;21.40;99.90;;;;;;5062084;28;20063;-58
2021/06/28 07:46:00;;;;;;;12.93;9.65;;;21.60;99.90;;;;;;5071030;28;20496;-58
2021/06/28 07:48:25;;;;;;;10.45;9.40;;;21.70;99.90;;;;;;5049930;28;20025;-58
2021/06/28 07:50:51;;;;;;;8.95;8.07;;;21.70;99.90;;;;;;5068706;28;20029;-58
2021/06/28 07:53:17;;;;;;;7.85;7.03;;;21.70;99.90;;;;;;5061678;28;20509;-58
2021/06/28 07:55:44;;;;;;;12.65;7.25;;;21.60;99.90;;;;;;5067382;28;20032;-58
2021/06/28 07:58:11;;;;;;;12.38;7.78;;;21.50;99.90;;;;;;5068136;28;20028;-58
2021/06/28 08:00:37;;;;;;;8.32;7.22;;;21.50;99.90;;;;;;5069778;28;20539;-58
2021/06/28 08:03:07;;;;;;;10.25;8.07;;;21.50;99.90;;;;;;5070485;28;20025;-58
2021/06/28 08:05:36;;;;;;;8.60;7.70;;;21.60;99.90;;;;;;5047074;28;20059;-58
2021/06/28 08:08:03;;;;;;;8.90;8.00;;;21.60;99.90;;;;;;5051861;28;20028;-58
2021/06/28 08:10:29;;;;;;;11.15;8.02;;;21.80;99.90;;;;;;5048867;28;20413;-58
2021/06/28 08:12:55;;;;;;;15.82;8.23;;;21.90;99.90;;;;;;5052541;28;20041;-58
2021/06/28 08:15:21;;;;;;;16.52;8.38;;;22.10;99.90;;;;;;5056160;28;20032;-58
2021/06/28 08:17:51;;;;;;;11.32;8.75;;;22.10;99.90;;;;;;5059315;28;20025;-57
2021/06/28 08:20:22;;;;;;;10.32;8.68;;;22.00;99.90;;;;;;5055531;28;20058;-58
2021/06/28 08:22:48;;;;;;;13.25;8.93;;;22.00;99.90;;;;;;5049744;28;20044;-57
2021/06/28 08:25:18;;;;;;;11.90;9.27;;;22.00;99.90;;;;;;5061659;28;20040;-58
2021/06/28 08:27:44;;;;;;;11.40;8.75;;;21.90;99.90;;;;;;5055476;28;20516;-58
2021/06/28 08:30:11;;;;;;;9.75;8.57;;;21.80;99.90;;;;;;5053673;28;20032;-58
2021/06/28 08:32:37;;;;;;;10.10;9.10;;;21.70;99.90;;;;;;5067054;28;20059;-58
2021/06/28 08:35:04;;;;;;;8.63;7.07;;;21.50;99.90;;;;;;5058537;28;20083;-57
2021/06/28 08:37:30;;;;;;;8.98;7.97;;;21.60;99.90;;;;;;5031777;28;20440;-58
2021/06/28 08:39:55;;;;;;;9.35;7.10;;;21.50;99.90;;;;;;5052095;28;20041;-58
2021/06/28 08:42:21;;;;;;;10.38;7.20;;;21.50;99.90;;;;;;5050154;28;20111;-58
2021/06/28 08:44:48;;;;;;;8.10;7.30;;;21.40;99.90;;;;;;5026291;28;20025;-58
2021/06/28 08:47:13;;;;;;;8.13;7.20;;;21.30;99.90;;;;;;5061391;28;20029;-58
2021/06/28 08:49:43;;;;;;;8.27;7.40;;;21.20;99.90;;;;;;5026618;28;20472;-59
2021/06/28 08:52:08;;;;;;;8.75;7.00;;;21.20;99.90;;;;;;5063081;28;20025;-58
2021/06/28 08:54:34;;;;;;;8.00;7.20;;;21.20;99.90;;;;;;5050383;28;20112;-58
2021/06/28 08:57:00;;;;;;;7.57;6.63;;;21.30;99.90;;;;;;5053011;28;20032;-58
2021/06/28 08:59:26;;;;;;;8.80;7.00;;;21.20;99.90;;;;;;5047288;28;20029;-58
2021/06/28 09:01:52;;;;;;;8.60;7.55;;;21.20;99.90;;;;;;5048820;28;20039;-59
2021/06/28 09:04:17;;;;;;;7.85;7.05;;;21.20;99.90;;;;;;5058990;28;20055;-58
2021/06/28 09:06:44;;;;;;;8.30;7.40;;;21.20;99.90;;;;;;5059143;28;20017;-59
2021/06/28 09:09:12;;;;;;;8.10;7.30;;;21.30;99.90;;;;;;5037621;28;20055;-59
2021/06/28 09:11:43;;;;;;;8.25;7.50;;;21.20;99.90;;;;;;5061082;28;20486;-59
2021/06/28 09:14:10;;;;;;;10.40;7.60;;;21.20;99.90;;;;;;5065149;28;20546;-59
2021/06/28 09:16:38;;;;;;;12.55;7.47;;;21.20;99.90;;;;;;5041855;28;20430;-58
2021/06/28 09:19:09;;;;;;;8.90;7.72;;;21.60;99.90;;;;;;5034972;28;20021;-58
2021/06/28 09:21:55;;;;;;;12.10;7.60;;;21.80;99.90;;;;;;5069563;28;20074;-58
2021/06/28 09:24:35;;;;;;;8.88;7.97;;;21.80;99.90;;;;;;5058169;28;20084;-58
2021/06/28 09:27:10;;;;;;;9.88;7.90;;;22.00;99.90;;;;;;5036208;28;20032;-58
2021/06/28 09:29:52;;;;;;;10.52;8.20;;;21.90;99.90;;;;;;5035601;28;20036;-58
2021/06/28 09:32:20;;;;;;;7.88;7.07;;;21.50;99.90;;;;;;5061068;28;20083;-60
2021/06/28 09:34:48;;;;;;;7.72;6.25;;;21.40;99.90;;;;;;5062997;28;20028;-59
2021/06/28 09:37:16;;;;;;;9.80;6.85;;;21.20;99.90;;;;;;5056894;28;20035;-59
2021/06/28 09:39:47;;;;;;;8.13;6.72;;;21.20;99.90;;;;;;5018267;28;20068;-59
2021/06/28 09:42:19;;;;;;;9.95;7.32;;;21.30;99.90;;;;;;5055544;28;20024;-59
2021/06/28 09:45:09;;;;;;;8.35;7.55;;;21.20;99.90;;;;;;5062567;28;20078;-59
2021/06/28 09:47:35;;;;;;;8.68;7.65;;;21.20;99.90;;;;;;5024734;28;20052;-60
2021/06/28 09:50:03;;;;;;;10.52;7.70;;;21.20;99.90;;;;;;5037784;28;20142;-59
2021/06/28 09:52:35;;;;;;;11.38;7.93;;;21.20;99.90;;;;;;5043065;28;20048;-59
2021/06/28 09:55:19;;;;;;;9.73;7.80;;;21.20;99.90;;;;;;5062020;28;20064;-59
2021/06/28 09:58:04;;;;;;;9.23;8.13;;;21.30;99.90;;;;;;5049358;28;20864;-59
2021/06/28 10:00:32;;;;;;;10.10;8.90;;;21.10;99.90;;;;;;5050871;28;20020;-59
2021/06/28 10:02:58;;;;;;;12.60;8.40;;;21.00;99.90;;;;;;5062812;28;20116;-59
2021/06/28 10:05:33;;;;;;;8.85;7.97;;;20.90;99.90;;;;;;5050597;28;20123;-59
2021/06/28 10:07:59;;;;;;;10.32;8.93;;;20.80;99.90;;;;;;5058065;28;20551;-58
2021/06/28 10:10:29;;;;;;;11.85;8.65;;;20.60;99.90;;;;;;5046212;28;20033;-58
2021/06/28 10:12:59;;;;;;;13.88;8.10;;;20.70;99.90;;;;;;5057914;28;20055;-58
2021/06/28 10:15:28;;;;;;;11.68;8.40;;;20.80;99.90;;;;;;5055267;28;20034;-58
2021/06/28 10:17:54;;;;;;;14.75;8.40;;;20.80;99.90;;;;;;5049711;28;20112;-58
2021/06/28 10:20:23;;;;;;;16.60;8.70;;;20.90;99.90;;;;;;5040402;28;20100;-57
2021/06/28 10:22:51;;;;;;;15.35;9.60;;;20.90;99.90;;;;;;5058379;28;20351;-57
2021/06/28 10:25:18;;;;;;;13.15;8.88;;;20.90;99.90;;;;;;5056433;28;20118;-57
2021/06/28 10:27:44;;;;;;;13.82;8.48;;;21.00;99.90;;;;;;5056605;28;20039;-58
2021/06/28 10:30:13;;;;;;;12.40;9.18;;;20.80;99.90;;;;;;5050139;28;20025;-58
2021/06/28 10:32:41;;;;;;;11.43;9.05;;;20.80;99.90;;;;;;5062186;28;20091;-57
2021/06/28 10:35:10;;;;;;;14.52;8.65;;;20.80;99.90;;;;;;5058236;28;20310;-58
2021/06/28 10:37:38;;;;;;;15.63;9.25;;;20.80;99.90;;;;;;5060950;28;20376;-58
2021/06/28 10:40:24;;;;;;;14.15;9.98;;;20.80;99.90;;;;;;5042911;28;20718;-58
2021/06/28 10:42:53;;;;;;;14.73;9.40;;;20.80;99.90;;;;;;5056811;28;20045;-56
2021/06/28 10:45:43;;;;;;;14.25;9.07;;;20.70;99.90;;;;;;5030465;28;20778;-59
2021/06/28 10:48:09;;;;;;;13.48;8.25;;;20.80;99.90;;;;;;5052447;28;20495;-57
2021/06/28 10:51:07;;;;;;;11.90;7.43;;;21.10;99.90;;;;;;5048317;28;20017;-57
2021/06/28 10:53:32;;;;;;;9.43;7.75;;;21.20;99.90;;;;;;5007242;28;20548;-57
2021/06/28 10:59:00;;;;;;;8.30;7.50;;;20.90;99.90;;;;;;5052250;28;20043;-57
2021/06/28 11:01:40;;;;;;;8.88;7.03;;;20.80;99.90;;;;;;5056014;28;20428;-58
2021/06/28 11:04:06;;;;;;;7.38;6.40;;;20.70;99.90;;;;;;5055962;28;20029;-57
2021/06/28 11:06:32;;;;;;;9.10;6.50;;;20.80;99.90;;;;;;5044572;28;20442;-58
2021/06/28 11:09:08;;;;;;;10.20;7.00;;;20.80;99.90;;;;;;5064451;28;20098;-59
2021/06/28 11:11:42;;;;;;;6.78;6.18;;;20.80;99.90;;;;;;5056943;28;20785;-58
2021/06/28 11:14:18;;;;;;;9.57;5.72;;;20.70;99.90;;;;;;5061103;28;20028;-58
2021/06/28 11:16:58;;;;;;;8.63;5.32;;;20.60;99.90;;;;;;5062602;28;20035;-58
2021/06/28 11:20:06;;;;;;;9.23;5.70;;;20.50;99.90;;;;;;5060254;28;20017;-58
2021/06/28 11:22:41;;;;;;;5.60;4.88;;;20.50;99.90;;;;;;5054487;28;20082;-59
2021/06/28 11:25:13;;;;;;;11.10;4.72;;;20.50;99.90;;;;;;5061147;28;20024;-59
2021/06/28 11:27:41;;;;;;;8.52;5.25;;;20.40;99.90;;;;;;5053396;28;20047;-58
2021/06/28 11:30:35;;;;;;;5.80;5.20;;;20.30;99.90;;;;;;5082723;27;20415;-60
2021/06/28 11:33:13;;;;;;;6.25;5.03;;;20.40;99.90;;;;;;5060547;28;20027;-60
2021/06/28 11:35:46;;;;;;;5.72;5.20;;;20.40;99.90;;;;;;5057905;28;20028;-60
2021/06/28 11:38:24;;;;;;;5.88;5.35;;;20.40;99.90;;;;;;5053734;28;20416;-60
2021/06/28 11:40:58;;;;;;;5.88;5.18;;;20.40;99.90;;;;;;5056808;28;20524;-60
2021/06/28 11:43:44;;;;;;;6.72;5.63;;;20.30;99.90;;;;;;5047774;28;20028;-60
2021/06/28 11:46:30;;;;;;;7.75;6.50;;;20.30;99.90;;;;;;5049595;28;20041;-58
2021/06/28 11:48:59;;;;;;;7.18;6.53;;;20.20;99.90;;;;;;5051011;28;20069;-58
2021/06/28 11:51:28;;;;;;;8.57;6.68;;;20.20;99.90;;;;;;5057953;28;20464;-59
2021/06/28 11:53:57;;;;;;;8.70;7.00;;;20.10;99.90;;;;;;5055008;28;20512;-60
2021/06/28 11:56:24;;;;;;;7.07;6.32;;;20.10;99.90;;;;;;5060285;28;20066;-60
2021/06/28 11:58:57;;;;;;;6.80;5.70;;;20.10;99.90;;;;;;5056409;28;21279;-60
2021/06/28 12:01:29;;;;;;;7.85;5.57;;;20.20;99.90;;;;;;5056468;28;20036;-60
2021/06/28 12:03:54;;;;;;;7.05;5.38;;;20.20;99.90;;;;;;5053718;28;20052;-60
2021/06/28 12:06:20;;;;;;;7.07;5.35;;;20.20;99.90;;;;;;5056104;28;20111;-60
2021/06/28 12:08:46;;;;;;;7.18;5.57;;;20.30;99.90;;;;;;5061120;28;20060;-60
2021/06/28 12:11:12;;;;;;;10.10;5.70;;;20.40;99.90;;;;;;5059237;28;20031;-58
2021/06/28 12:13:41;;;;;;;7.03;5.43;;;20.50;99.90;;;;;;5057933;28;20607;-58
2021/06/28 12:16:23;;;;;;;5.85;5.30;;;20.50;99.90;;;;;;5061094;28;20508;-58
2021/06/28 12:19:00;;;;;;;5.15;4.70;;;20.50;99.90;;;;;;5055225;28;20032;-58
2021/06/28 12:21:27;;;;;;;5.07;4.68;;;20.50;99.90;;;;;;5059071;28;20537;-58
2021/06/28 12:24:01;;;;;;;5.25;4.63;;;20.40;99.90;;;;;;5059881;28;20486;-58
2021/06/28 12:26:27;;;;;;;4.38;3.97;;;20.30;99.90;;;;;;5054017;28;20043;-57
2021/06/28 12:28:53;;;;;;;5.97;4.72;;;20.10;99.90;;;;;;5054451;28;20048;-63
2021/06/28 12:31:18;;;;;;;8.00;5.90;;;20.00;99.90;;;;;;5060728;28;20507;-64
2021/06/28 12:33:44;;;;;;;7.57;6.15;;;19.80;99.90;;;;;;5056964;28;20029;-64
2021/06/28 12:36:10;;;;;;;8.75;7.85;;;19.70;99.90;;;;;;5054668;28;20496;-64
2021/06/28 12:38:36;;;;;;;7.85;7.05;;;19.70;99.90;;;;;;5053148;28;20103;-65
2021/06/28 12:41:03;;;;;;;8.93;6.50;;;19.70;99.90;;;;;;5047090;28;20480;-65